createdAt,value
2022-10-17T00:00:43.908Z,15.55
2022-10-17T00:03:10.730Z,15.49
2022-10-17T00:05:41.990Z,15.51
2022-10-17T00:08:10.523Z,15.58
2022-10-17T00:10:37.872Z,15.46
2022-10-17T00:13:04.962Z,15.53
2022-10-17T00:15:32.198Z,15.61
2022-10-17T00:17:59.479Z,15.62
2022-10-17T00:20:26.695Z,15.58
2022-10-17T00:22:53.707Z,15.57
2022-10-17T00:25:20.446Z,15.58
2022-10-17T00:27:47.017Z,15.73
2022-10-17T00:30:15.601Z,15.69
2022-10-17T00:32:42.531Z,15.76
2022-10-17T00:35:09.406Z,15.77
2022-10-17T00:37:36.238Z,15.73
2022-10-17T00:40:03.863Z,15.78
2022-10-17T00:42:30.863Z,15.88
2022-10-17T00:45:03.038Z,15.87
2022-10-17T00:47:30.940Z,15.88
2022-10-17T00:49:58.634Z,15.93
2022-10-17T00:52:29.237Z,15.90
2022-10-17T00:55:00.416Z,15.96
2022-10-17T00:57:31.051Z,15.90
2022-10-17T00:59:59.567Z,15.93
2022-10-17T01:02:26.475Z,15.97
2022-10-17T01:04:56.551Z,15.81
2022-10-17T01:07:23.437Z,15.80
2022-10-17T01:09:50.323Z,15.76
2022-10-17T01:12:26.103Z,15.90
2022-10-17T01:15:08.311Z,15.74
2022-10-17T01:17:43.932Z,15.87
2022-10-17T01:20:47.821Z,16.00
2022-10-17T01:23:42.348Z,16.15
2022-10-17T01:26:24.090Z,16.09
2022-10-17T01:29:09.126Z,16.07
2022-10-17T01:31:47.622Z,16.09
2022-10-17T01:34:25.253Z,15.95
2022-10-17T01:36:58.217Z,15.88
2022-10-17T01:39:34.403Z,15.91
2022-10-17T01:42:23.382Z,15.94
2022-10-17T01:45:22.847Z,15.92
2022-10-17T01:47:52.838Z,15.59
2022-10-17T01:50:49.468Z,15.66
2022-10-17T01:53:29.128Z,15.58
2022-10-17T01:56:00.430Z,15.53
2022-10-17T01:58:32.028Z,15.66
2022-10-17T02:01:03.026Z,15.45
2022-10-17T02:03:30.807Z,15.49
2022-10-17T02:05:57.394Z,15.60
2022-10-17T02:08:51.512Z,15.68
2022-10-17T02:11:21.518Z,15.41
2022-10-17T02:14:15.868Z,15.26
2022-10-17T02:17:05.508Z,15.44
2022-10-17T02:20:01.939Z,15.39
2022-10-17T02:22:37.623Z,15.21
2022-10-17T02:25:21.355Z,15.38
2022-10-17T02:28:16.699Z,15.48
2022-10-17T02:30:55.074Z,15.24
2022-10-17T02:33:29.342Z,15.20
2022-10-17T02:35:59.945Z,15.13
2022-10-17T02:38:29.403Z,15.05
2022-10-17T02:40:56.263Z,14.98
2022-10-17T02:43:23.883Z,15.01
2022-10-17T02:45:52.738Z,15.13
2022-10-17T02:48:19.339Z,15.14
2022-10-17T02:51:20.384Z,15.18
2022-10-17T02:54:22.945Z,15.15
2022-10-17T02:57:01.604Z,15.03
2022-10-17T02:59:31.302Z,15.13
2022-10-17T03:01:58.198Z,15.16
2022-10-17T03:04:24.804Z,15.24
2022-10-17T03:06:51.460Z,15.35
2022-10-17T03:09:18.063Z,15.31
2022-10-17T03:11:44.699Z,15.06
2022-10-17T03:14:11.334Z,15.14
2022-10-17T03:16:37.957Z,15.00
2022-10-17T03:19:05.023Z,15.04
2022-10-17T03:21:31.655Z,15.01
2022-10-17T03:23:58.271Z,14.97
2022-10-17T03:26:25.183Z,15.04
2022-10-17T03:28:53.694Z,15.19
2022-10-17T03:31:21.583Z,14.97
2022-10-17T03:33:48.219Z,14.78
2022-10-17T03:36:16.942Z,14.83
2022-10-17T03:38:44.661Z,14.85
2022-10-17T03:41:11.604Z,14.94
2022-10-17T03:43:39.607Z,14.98
2022-10-17T03:46:07.407Z,14.86
2022-10-17T03:48:34.192Z,14.71
2022-10-17T03:51:03.180Z,14.64
2022-10-17T03:53:29.854Z,14.42
2022-10-17T03:55:57.270Z,14.68
2022-10-17T03:58:23.977Z,14.72
2022-10-17T04:00:50.622Z,14.71
2022-10-17T04:03:17.502Z,14.69
2022-10-17T04:05:44.215Z,14.78
2022-10-17T04:08:10.812Z,14.74
2022-10-17T04:10:37.517Z,14.73
2022-10-17T04:13:04.651Z,14.53
2022-10-17T04:15:31.259Z,14.60
2022-10-17T04:17:57.847Z,14.65
2022-10-17T04:20:24.502Z,14.63
2022-10-17T04:22:51.076Z,14.61
2022-10-17T04:25:17.731Z,14.46
2022-10-17T04:27:44.303Z,14.63
2022-10-17T04:30:11.340Z,14.73
2022-10-17T04:32:41.308Z,14.78
2022-10-17T04:35:08.427Z,14.78
2022-10-17T04:37:35.035Z,14.62
2022-10-17T04:40:01.599Z,14.44
2022-10-17T04:42:29.639Z,14.46
2022-10-17T04:44:56.409Z,14.49
2022-10-17T04:47:23.002Z,14.48
2022-10-17T04:49:49.589Z,14.52
2022-10-17T04:52:16.307Z,14.46
2022-10-17T04:54:42.884Z,14.59
2022-10-17T04:57:09.671Z,14.49
2022-10-17T04:59:36.283Z,14.49
2022-10-17T05:02:03.144Z,14.43
2022-10-17T05:04:29.743Z,14.43
2022-10-17T05:06:56.343Z,14.46
2022-10-17T05:09:22.906Z,14.41
2022-10-17T05:11:49.503Z,14.39
2022-10-17T05:14:16.190Z,14.39
2022-10-17T05:16:42.791Z,14.35
2022-10-17T05:19:09.439Z,14.38
2022-10-17T05:21:37.454Z,14.15
2022-10-17T05:24:08.566Z,14.11
2022-10-17T05:26:35.234Z,14.14
2022-10-17T05:29:05.510Z,14.13
2022-10-17T05:31:32.317Z,13.96
2022-10-17T05:34:02.780Z,13.81
2022-10-17T05:36:29.570Z,13.82
2022-10-17T05:38:56.214Z,13.79
2022-10-17T05:41:22.921Z,13.78
2022-10-17T05:43:50.402Z,13.69
2022-10-17T05:46:17.127Z,13.68
2022-10-17T05:48:43.750Z,13.54
2022-10-17T05:51:11.106Z,13.50
2022-10-17T05:53:40.224Z,13.59
2022-10-17T05:56:08.692Z,13.61
2022-10-17T05:58:49.668Z,13.49
2022-10-17T06:01:18.468Z,13.59
2022-10-17T06:03:45.110Z,13.37
2022-10-17T06:06:13.686Z,13.44
2022-10-17T06:08:40.407Z,13.67
2022-10-17T06:11:09.935Z,13.63
2022-10-17T06:13:38.550Z,13.52
2022-10-17T06:16:05.977Z,13.53
2022-10-17T06:18:32.979Z,13.39
2022-10-17T06:21:07.971Z,13.58
2022-10-17T06:23:34.646Z,13.54
2022-10-17T06:26:03.371Z,13.72
2022-10-17T06:28:30.610Z,13.79
2022-10-17T06:30:57.248Z,13.79
2022-10-17T06:33:23.911Z,13.77
2022-10-17T06:35:55.425Z,13.80
2022-10-17T06:38:22.958Z,13.79
2022-10-17T06:40:49.825Z,13.91
2022-10-17T06:43:16.485Z,13.98
2022-10-17T06:45:43.095Z,14.03
2022-10-17T06:48:09.677Z,14.02
2022-10-17T06:50:36.317Z,13.94
2022-10-17T06:53:03.187Z,13.79
2022-10-17T06:55:31.823Z,13.62
2022-10-17T06:57:58.615Z,13.51
2022-10-17T07:00:26.836Z,13.50
2022-10-17T07:02:53.500Z,13.56
2022-10-17T07:05:20.215Z,13.61
2022-10-17T07:07:48.561Z,13.86
2022-10-17T07:10:17.635Z,13.86
2022-10-17T07:12:45.863Z,13.92
2022-10-17T07:15:13.120Z,14.08
2022-10-17T07:17:39.703Z,14.13
2022-10-17T07:20:06.826Z,14.12
2022-10-17T07:22:33.462Z,14.19
2022-10-17T07:25:00.198Z,14.25
2022-10-17T07:27:27.290Z,14.35
2022-10-17T07:29:54.060Z,14.33
2022-10-17T07:32:20.625Z,14.50
2022-10-17T07:34:47.184Z,14.46
2022-10-17T07:37:13.787Z,14.59
2022-10-17T07:39:40.420Z,14.54
2022-10-17T07:42:07.874Z,14.53
2022-10-17T07:44:35.577Z,14.45
2022-10-17T07:47:02.382Z,14.49
2022-10-17T07:49:29.373Z,14.54
2022-10-17T07:51:56.081Z,14.50
2022-10-17T07:54:22.841Z,14.53
2022-10-17T07:56:50.779Z,14.66
2022-10-17T07:59:20.309Z,14.92
2022-10-17T08:01:47.001Z,15.00
2022-10-17T08:04:13.587Z,15.06
2022-10-17T08:06:40.202Z,15.26
2022-10-17T08:09:06.784Z,15.34
2022-10-17T08:11:33.494Z,14.96
2022-10-17T08:14:00.052Z,15.13
2022-10-17T08:16:26.778Z,15.34
2022-10-17T08:18:53.407Z,15.00
2022-10-17T08:21:20.061Z,14.87
2022-10-17T08:23:46.688Z,15.29
2022-10-17T08:26:16.885Z,15.61
2022-10-17T08:28:43.679Z,15.82
2022-10-17T08:31:13.347Z,16.00
2022-10-17T08:33:41.118Z,16.21
2022-10-17T08:36:09.117Z,16.30
2022-10-17T08:38:37.625Z,16.49
2022-10-17T08:41:13.709Z,16.54
2022-10-17T08:44:05.840Z,16.60
2022-10-17T08:46:36.876Z,16.44
2022-10-17T08:49:12.015Z,16.52
2022-10-17T08:51:48.005Z,16.02
2022-10-17T08:54:20.395Z,16.43
2022-10-17T08:56:50.110Z,16.59
2022-10-17T08:59:27.690Z,16.95
2022-10-17T09:02:28.337Z,17.01
2022-10-17T09:05:26.291Z,17.13
2022-10-17T09:08:16.286Z,17.47
2022-10-17T09:10:57.590Z,17.71
2022-10-17T09:13:29.848Z,17.80
2022-10-17T09:16:14.943Z,17.77
2022-10-17T09:18:46.387Z,17.93
2022-10-17T09:21:47.927Z,18.44
2022-10-17T09:24:53.680Z,19.15
2022-10-17T09:27:20.232Z,19.41
2022-10-17T09:29:50.482Z,19.63
2022-10-17T09:32:21.971Z,19.80
2022-10-17T09:34:48.833Z,19.73
2022-10-17T09:37:17.299Z,19.96
2022-10-17T09:39:45.082Z,20.14
2022-10-17T09:42:15.374Z,19.87
2022-10-17T09:44:47.907Z,20.36
2022-10-17T09:47:43.721Z,20.22
2022-10-17T09:50:25.440Z,19.82
2022-10-17T09:52:53.963Z,20.68
2022-10-17T09:55:26.610Z,20.65
2022-10-17T09:57:59.356Z,20.41
2022-10-17T10:00:32.956Z,20.03
2022-10-17T10:03:21.547Z,20.12
2022-10-17T10:06:12.394Z,20.74
2022-10-17T10:08:52.684Z,20.84
2022-10-17T10:11:24.554Z,20.23
2022-10-17T10:13:52.257Z,20.18
2022-10-17T10:16:31.091Z,20.25
2022-10-17T10:18:57.977Z,20.79
2022-10-17T10:21:26.807Z,20.78
2022-10-17T10:23:59.574Z,20.81
2022-10-17T10:26:30.132Z,21.31
2022-10-17T10:29:07.789Z,21.61
2022-10-17T10:31:40.107Z,21.51
2022-10-17T10:34:18.588Z,22.02
2022-10-17T10:36:47.073Z,22.93
2022-10-17T10:39:47.584Z,23.58
2022-10-17T10:42:28.713Z,23.03
2022-10-17T10:45:00.041Z,22.56
2022-10-17T10:47:32.508Z,24.04
2022-10-17T10:50:20.135Z,23.54
2022-10-17T10:52:52.449Z,23.71
2022-10-17T10:55:40.306Z,22.80
2022-10-17T10:58:33.636Z,22.67
2022-10-17T11:03:33.864Z,22.98
2022-10-17T11:06:23.914Z,22.81
2022-10-17T11:09:04.291Z,23.00
2022-10-17T11:11:34.618Z,22.34
2022-10-17T11:14:13.075Z,22.52
2022-10-17T11:16:47.691Z,22.99
2022-10-17T11:19:25.942Z,23.15
2022-10-17T11:21:55.724Z,23.50
2022-10-17T11:24:29.988Z,22.70
2022-10-17T11:27:00.665Z,23.38
2022-10-17T11:29:36.802Z,24.45
2022-10-17T11:32:09.425Z,24.35
2022-10-17T11:34:42.423Z,25.06
2022-10-17T11:37:20.614Z,24.58
2022-10-17T11:40:21.974Z,23.71
2022-10-17T11:43:00.002Z,24.58
2022-10-17T11:45:31.465Z,24.70
2022-10-17T11:48:06.401Z,24.10
2022-10-17T11:53:43.199Z,26.37
2022-10-17T11:56:11.543Z,26.30
2022-10-17T11:58:55.091Z,25.89
2022-10-17T12:01:35.581Z,24.79
2022-10-17T12:04:05.912Z,25.06
2022-10-17T12:07:10.902Z,24.66
2022-10-17T12:10:15.990Z,24.40
2022-10-17T12:12:43.465Z,24.70
2022-10-17T12:15:27.987Z,25.68
2022-10-17T12:17:55.703Z,24.80
2022-10-17T12:20:25.166Z,24.89
2022-10-17T12:22:53.269Z,23.91
2022-10-17T12:25:30.084Z,23.55
2022-10-17T12:28:30.794Z,23.60
2022-10-17T12:31:10.017Z,23.10
2022-10-17T12:33:58.103Z,22.79
2022-10-17T12:36:28.175Z,23.57
2022-10-17T12:39:03.995Z,23.84
2022-10-17T12:41:39.540Z,23.98
2022-10-17T12:44:36.675Z,24.67
2022-10-17T12:47:06.197Z,24.69
2022-10-17T12:49:49.690Z,24.74
2022-10-17T12:52:27.002Z,24.67
2022-10-17T12:55:11.621Z,25.05
2022-10-17T12:57:42.307Z,25.67
2022-10-17T13:00:14.955Z,25.58
2022-10-17T13:02:42.186Z,25.86
2022-10-17T13:05:16.747Z,26.10
2022-10-17T13:07:48.502Z,26.09
2022-10-17T13:10:24.688Z,26.16
2022-10-17T13:12:58.852Z,26.39
2022-10-17T13:15:25.731Z,26.22
2022-10-17T13:18:01.003Z,26.75
2022-10-17T13:20:31.613Z,25.94
2022-10-17T13:22:59.171Z,26.49
2022-10-17T13:25:27.114Z,26.53
2022-10-17T13:28:06.672Z,26.75
2022-10-17T13:30:35.787Z,27.28
2022-10-17T13:33:03.452Z,26.83
2022-10-17T13:35:59.068Z,27.20
2022-10-17T13:38:29.893Z,26.48
2022-10-17T13:41:05.770Z,26.13
2022-10-17T13:43:38.826Z,25.97
2022-10-17T13:46:32.670Z,25.98
2022-10-17T13:48:53.691Z,26.03
2022-10-17T13:51:20.496Z,25.33
2022-10-17T13:53:47.123Z,24.84
2022-10-17T13:56:27.813Z,24.81
2022-10-17T13:59:05.117Z,24.18
2022-10-17T14:01:32.263Z,23.72
2022-10-17T14:04:20.226Z,23.64
2022-10-17T14:06:49.755Z,24.02
2022-10-17T14:09:27.786Z,24.10
2022-10-17T14:12:06.302Z,23.67
2022-10-17T14:14:51.579Z,23.54
2022-10-17T14:17:30.599Z,23.60
2022-10-17T14:23:10.541Z,23.21
2022-10-17T14:25:39.495Z,23.69
2022-10-17T14:28:12.749Z,24.06
2022-10-17T14:30:57.528Z,24.15
2022-10-17T14:33:30.323Z,23.87
2022-10-17T14:35:59.539Z,23.84
2022-10-17T14:38:27.378Z,24.00
2022-10-17T14:41:09.608Z,24.32
2022-10-17T14:43:44.147Z,23.80
2022-10-17T14:46:16.005Z,24.39
2022-10-17T14:48:43.167Z,24.12
2022-10-17T14:51:16.361Z,24.22
2022-10-17T14:54:21.055Z,24.13
2022-10-17T14:56:53.410Z,24.26
2022-10-17T14:59:51.616Z,24.28
2022-10-17T15:02:11.550Z,24.49
2022-10-17T15:04:38.159Z,24.58
2022-10-17T15:07:05.059Z,24.43
2022-10-17T15:09:31.723Z,24.51
2022-10-17T15:12:07.055Z,24.63
2022-10-17T15:14:33.617Z,24.48
2022-10-17T15:17:00.698Z,24.41
2022-10-17T15:19:27.306Z,24.35
2022-10-17T15:21:53.903Z,24.40
2022-10-17T15:24:20.513Z,24.74
2022-10-17T15:26:47.145Z,24.84
2022-10-17T15:29:16.172Z,25.01
2022-10-17T15:31:42.838Z,25.02
2022-10-17T15:34:09.410Z,24.88
2022-10-17T15:36:50.790Z,24.18
2022-10-17T15:39:17.365Z,23.99
2022-10-17T15:41:44.196Z,23.90
2022-10-17T15:44:11.150Z,23.83
2022-10-17T15:46:40.905Z,23.82
2022-10-17T15:49:12.132Z,23.78
2022-10-17T15:51:39.329Z,23.83
2022-10-17T15:54:06.401Z,23.96
2022-10-17T15:56:42.325Z,24.00
2022-10-17T15:59:17.973Z,24.09
2022-10-17T16:01:45.177Z,24.09
2022-10-17T16:04:14.820Z,24.20
2022-10-17T16:06:44.232Z,24.19
2022-10-17T16:09:11.103Z,24.17
2022-10-17T16:11:40.606Z,24.10
2022-10-17T16:14:11.517Z,24.01
2022-10-17T16:16:38.755Z,23.91
2022-10-17T16:19:05.760Z,23.90
2022-10-17T16:21:35.157Z,23.81
2022-10-17T16:24:02.183Z,23.74
2022-10-17T16:26:29.519Z,23.62
2022-10-17T16:28:58.116Z,23.43
2022-10-17T16:31:31.192Z,23.51
2022-10-17T16:33:59.262Z,23.84
2022-10-17T16:36:25.883Z,23.36
2022-10-17T16:38:54.138Z,23.20
2022-10-17T16:41:22.611Z,23.03
2022-10-17T16:43:50.743Z,22.90
2022-10-17T16:46:18.262Z,22.78
2022-10-17T16:48:45.740Z,22.52
2022-10-17T16:51:13.662Z,22.45
2022-10-17T16:53:43.751Z,22.33
2022-10-17T16:56:21.823Z,22.23
2022-10-17T16:58:49.187Z,21.94
2022-10-17T17:01:18.834Z,21.97
2022-10-17T17:03:47.350Z,21.91
2022-10-17T17:06:16.505Z,21.83
2022-10-17T17:08:43.741Z,21.70
2022-10-17T17:11:13.430Z,21.61
2022-10-17T17:13:40.835Z,21.44
2022-10-17T17:16:09.420Z,21.30
2022-10-17T17:18:36.261Z,21.21
2022-10-17T17:21:04.787Z,21.11
2022-10-17T17:23:33.943Z,20.93
2022-10-17T17:26:04.021Z,20.82
2022-10-17T17:28:32.209Z,20.71
2022-10-17T17:30:58.828Z,20.64
2022-10-17T17:33:26.458Z,20.54
2022-10-17T17:36:00.515Z,20.54
2022-10-17T17:38:31.813Z,20.42
2022-10-17T17:40:58.582Z,20.13
2022-10-17T17:43:25.514Z,20.11
2022-10-17T17:45:52.491Z,20.11
2022-10-17T17:48:19.214Z,20.06
2022-10-17T17:50:46.566Z,19.90
2022-10-17T17:53:16.215Z,19.76
2022-10-17T17:55:42.798Z,19.72
2022-10-17T17:58:09.891Z,19.55
2022-10-17T18:00:36.526Z,19.49
2022-10-17T18:03:03.302Z,19.45
2022-10-17T18:05:30.690Z,19.42
2022-10-17T18:07:57.458Z,19.42
2022-10-17T18:10:24.054Z,19.32
2022-10-17T18:12:50.686Z,19.22
2022-10-17T18:15:17.390Z,19.16
2022-10-17T18:17:44.010Z,19.03
2022-10-17T18:20:11.034Z,18.95
2022-10-17T18:22:37.642Z,18.90
2022-10-17T18:25:05.652Z,18.86
2022-10-17T18:27:32.246Z,18.77
2022-10-17T18:29:58.902Z,18.54
2022-10-17T18:32:25.494Z,18.24
2022-10-17T18:34:52.241Z,18.23
2022-10-17T18:37:18.850Z,18.21
2022-10-17T18:39:51.497Z,18.28
2022-10-17T18:42:18.582Z,18.19
2022-10-17T18:44:46.925Z,18.16
2022-10-17T18:47:13.530Z,18.03
2022-10-17T18:49:40.476Z,17.99
2022-10-17T18:52:07.147Z,18.01
2022-10-17T18:54:34.733Z,17.80
2022-10-17T18:57:01.379Z,17.70
2022-10-17T18:59:27.976Z,17.65
2022-10-17T19:01:54.650Z,17.46
2022-10-17T19:04:21.482Z,17.32
2022-10-17T19:06:48.143Z,17.35
2022-10-17T19:09:15.640Z,17.34
2022-10-17T19:11:42.925Z,17.44
2022-10-17T19:14:14.124Z,17.49
2022-10-17T19:16:45.543Z,17.46
2022-10-17T19:19:12.114Z,17.45
2022-10-17T19:21:39.299Z,17.40
2022-10-17T19:24:10.703Z,17.45
2022-10-17T19:26:38.202Z,17.46
2022-10-17T19:29:05.067Z,17.38
2022-10-17T19:31:32.956Z,17.36
2022-10-17T19:34:00.212Z,17.29
2022-10-17T19:36:32.518Z,17.22
2022-10-17T19:39:04.003Z,17.09
2022-10-17T19:41:31.010Z,17.07
2022-10-17T19:43:58.183Z,16.93
2022-10-17T19:46:26.789Z,16.75
2022-10-17T19:48:53.851Z,16.65
2022-10-17T19:51:24.410Z,16.61
2022-10-17T19:53:52.368Z,16.61
2022-10-17T19:56:20.929Z,16.73
2022-10-17T19:58:48.525Z,16.72
2022-10-17T20:01:17.971Z,16.76
2022-10-17T20:03:44.881Z,16.74
2022-10-17T20:06:12.216Z,16.67
2022-10-17T20:08:39.914Z,16.65
2022-10-17T20:11:15.769Z,16.62
2022-10-17T20:13:43.262Z,16.56
2022-10-17T20:16:14.089Z,16.59
2022-10-17T20:18:41.025Z,16.50
2022-10-17T20:21:10.578Z,16.39
2022-10-17T20:23:37.824Z,16.32
2022-10-17T20:26:25.367Z,16.34
2022-10-17T20:28:53.668Z,16.25
2022-10-17T20:31:20.822Z,16.02
2022-10-17T20:33:47.539Z,15.88
2022-10-17T20:36:14.821Z,15.88
2022-10-17T20:38:41.431Z,15.71
2022-10-17T20:41:09.725Z,15.78
2022-10-17T20:43:38.506Z,15.83
2022-10-17T20:46:22.877Z,15.80
2022-10-17T20:48:58.945Z,15.71
2022-10-17T20:51:26.431Z,15.59
2022-10-17T20:53:53.806Z,15.45
2022-10-17T20:56:24.142Z,15.42
2022-10-17T20:58:56.239Z,15.58
2022-10-17T21:01:24.176Z,15.36
2022-10-17T21:03:51.415Z,15.42
2022-10-17T21:06:18.972Z,15.44
2022-10-17T21:08:46.976Z,15.49
2022-10-17T21:11:22.088Z,15.46
2022-10-17T21:13:57.750Z,15.47
2022-10-17T21:16:25.705Z,15.47
2022-10-17T21:18:52.842Z,15.47
2022-10-17T21:21:40.499Z,15.42
2022-10-17T21:24:14.132Z,15.33
2022-10-17T21:26:42.544Z,15.23
2022-10-17T21:29:10.273Z,14.90
2022-10-17T21:31:39.155Z,15.03
2022-10-17T21:34:12.438Z,15.06
2022-10-17T21:36:38.979Z,15.49
2022-10-17T21:39:05.598Z,15.25
2022-10-17T21:41:32.683Z,14.90
2022-10-17T21:44:20.884Z,14.93
2022-10-17T21:46:48.226Z,15.11
2022-10-17T21:49:18.921Z,15.11
2022-10-17T21:51:47.569Z,15.10
2022-10-17T21:54:15.525Z,15.04
2022-10-17T21:56:43.043Z,15.10
2022-10-17T21:59:09.711Z,15.01
2022-10-17T22:01:39.541Z,14.96
2022-10-17T22:04:08.880Z,14.86
2022-10-17T22:06:40.059Z,14.83
2022-10-17T22:09:11.523Z,14.89
2022-10-17T22:11:38.804Z,14.72
2022-10-17T22:14:08.276Z,14.77
2022-10-17T22:16:35.295Z,14.72
2022-10-17T22:19:06.292Z,14.74
2022-10-17T22:21:35.186Z,14.80
2022-10-17T22:24:04.981Z,14.66
2022-10-17T22:26:33.540Z,14.48
2022-10-17T22:29:00.614Z,14.50
2022-10-17T22:31:27.310Z,14.62
2022-10-17T22:33:53.919Z,14.54
2022-10-17T22:36:20.551Z,14.60
2022-10-17T22:38:47.180Z,14.43
2022-10-17T22:41:13.771Z,14.26
2022-10-17T22:43:40.387Z,14.24
2022-10-17T22:46:08.087Z,14.29
2022-10-17T22:48:35.350Z,14.26
2022-10-17T22:51:02.621Z,14.30
2022-10-17T22:53:30.058Z,14.21
2022-10-17T22:55:59.438Z,14.15
2022-10-17T22:58:27.249Z,14.11
2022-10-17T23:00:54.227Z,14.18
2022-10-17T23:03:21.851Z,14.14
2022-10-17T23:05:49.498Z,14.26
2022-10-17T23:08:17.959Z,14.24
2022-10-17T23:10:45.603Z,14.15
2022-10-17T23:13:12.325Z,14.16
2022-10-17T23:15:39.293Z,14.19
2022-10-17T23:18:06.002Z,14.14
2022-10-17T23:20:32.916Z,14.14
2022-10-17T23:22:59.508Z,14.14
2022-10-17T23:25:26.540Z,14.16
2022-10-17T23:27:53.158Z,14.11
2022-10-17T23:30:19.774Z,14.03
2022-10-17T23:32:46.439Z,14.05
2022-10-17T23:35:13.051Z,14.11
2022-10-17T23:37:39.623Z,13.97
2022-10-17T23:40:06.823Z,13.94
2022-10-17T23:42:33.395Z,13.93
2022-10-17T23:45:00.010Z,13.43
2022-10-17T23:47:26.609Z,13.59
2022-10-17T23:49:53.191Z,13.67
2022-10-17T23:52:19.789Z,13.59
2022-10-17T23:54:46.351Z,13.75
2022-10-17T23:57:12.956Z,13.65
2022-10-17T23:59:39.602Z,13.59
